Terminal Aerodrome Forecast
Issued by NWS

Home | Current Version | Previous Version | Text Only | Print | Product List | Glossary Off
Versions: 1 2 3 4 5 6 7 8 9 10 11 12 13 14 15

000
FTUS43 KMPX 192300
TAFRNH
TAF
KRNH 192339Z 2000/2024 15004KT P6SM BKN045 OVC090
      TEMPO 2000/2003 -SHRA
     FM200600 22006KT P6SM SCT050 BKN090
     FM201000 28006KT P6SM BKN025
     FM201300 31010KT P6SM BKN035
     FM201800 29011G17KT P6SM SCT250=

USA.gov is the U.S. government's official web portal to all federal, state and local government web resources and services.